createdAt,value
2019-01-22T00:01:20.990Z,35.60
2019-01-22T00:03:52.457Z,36.67
2019-01-22T00:06:24.054Z,35.70
2019-01-22T00:08:55.415Z,36.90
2019-01-22T00:11:26.929Z,37.13
2019-01-22T00:13:58.498Z,32.97
2019-01-22T00:16:29.898Z,37.00
2019-01-22T00:19:01.277Z,37.10
2019-01-22T00:21:32.736Z,41.20
2019-01-22T00:24:04.467Z,43.03
2019-01-22T00:26:35.942Z,41.87
2019-01-22T00:29:07.719Z,38.70
2019-01-22T00:31:39.213Z,39.00
2019-01-22T00:34:10.511Z,44.57
2019-01-22T00:36:42.027Z,43.77
2019-01-22T00:39:13.447Z,40.70
2019-01-22T00:41:44.916Z,46.37
2019-01-22T00:44:16.369Z,40.87
2019-01-22T00:46:47.761Z,40.00
2019-01-22T00:49:19.061Z,39.93
2019-01-22T00:51:51.167Z,41.37
2019-01-22T00:54:22.627Z,42.60
2019-01-22T00:56:53.959Z,42.07
2019-01-22T00:59:25.497Z,42.03
2019-01-22T01:01:57.049Z,41.97
2019-01-22T01:04:28.429Z,38.40
2019-01-22T01:07:00.020Z,41.83
2019-01-22T01:09:31.482Z,38.60
2019-01-22T01:12:02.876Z,39.87
2019-01-22T01:14:34.260Z,37.43
2019-01-22T01:17:05.901Z,41.80
2019-01-22T01:19:37.268Z,42.53
2019-01-22T01:22:08.784Z,39.10
2019-01-22T01:24:40.077Z,45.13
2019-01-22T01:27:12.130Z,41.83
2019-01-22T01:29:43.442Z,43.37
2019-01-22T01:32:14.791Z,45.93
2019-01-22T01:34:46.180Z,39.33
2019-01-22T01:37:17.560Z,40.17
2019-01-22T01:39:49.126Z,41.03
2019-01-22T01:42:20.465Z,41.90
2019-01-22T01:44:51.808Z,40.33
2019-01-22T01:47:23.152Z,43.37
2019-01-22T01:49:54.464Z,39.80
2019-01-22T01:52:25.816Z,42.83
2019-01-22T01:54:57.199Z,38.60
2019-01-22T01:57:28.620Z,38.67
2019-01-22T01:59:59.975Z,39.77
2019-01-22T02:02:31.524Z,38.50
2019-01-22T02:05:02.831Z,39.33
2019-01-22T02:07:34.315Z,42.67
2019-01-22T02:10:12.812Z,39.50
2019-01-22T02:13:07.171Z,43.37
2019-01-22T02:16:04.544Z,43.90
2019-01-22T02:18:52.732Z,39.87
2019-01-22T02:21:34.507Z,41.10
2019-01-22T02:24:26.103Z,43.07
2019-01-22T02:27:02.192Z,40.30
2019-01-22T02:30:07.178Z,45.10
2019-01-22T02:33:22.168Z,44.70
2019-01-22T02:36:25.474Z,40.50
2019-01-22T02:39:48.504Z,37.63
2019-01-22T02:42:36.741Z,41.23
2019-01-22T02:45:24.229Z,46.00
2019-01-22T02:48:02.983Z,45.80
2019-01-22T02:51:00.039Z,42.77
2019-01-22T02:53:38.877Z,44.27
2019-01-22T02:56:38.232Z,44.10
2019-01-22T02:59:22.582Z,45.30
2019-01-22T03:02:01.355Z,44.13
2019-01-22T03:04:46.351Z,46.00
2019-01-22T03:07:31.291Z,47.87
2019-01-22T03:10:19.533Z,46.77
2019-01-22T03:13:13.192Z,43.53
2019-01-22T03:16:24.023Z,52.00
2019-01-22T03:19:08.973Z,45.70
2019-01-22T03:21:59.274Z,44.30
2019-01-22T03:24:49.915Z,46.47
2019-01-22T03:27:28.702Z,43.07
2019-01-22T03:30:30.351Z,45.57
2019-01-22T03:33:19.732Z,45.57
2019-01-22T03:36:01.826Z,51.63
2019-01-22T03:39:03.411Z,51.47
2019-01-22T03:42:14.204Z,51.13
2019-01-22T03:45:08.420Z,47.37
2019-01-22T03:48:05.502Z,49.87
2019-01-22T03:51:08.621Z,51.90
2019-01-22T03:54:08.023Z,50.50
2019-01-22T03:57:20.211Z,50.60
2019-01-22T03:59:51.662Z,53.30
2019-01-22T04:02:24.677Z,53.20
2019-01-22T04:04:56.064Z,55.07
2019-01-22T04:07:27.785Z,56.77
2019-01-22T04:10:00.719Z,56.27
2019-01-22T04:12:46.478Z,52.73
2019-01-22T04:15:22.980Z,52.83
2019-01-22T04:17:54.477Z,54.00
2019-01-22T04:20:25.971Z,56.93
2019-01-22T04:22:58.084Z,62.13
2019-01-22T04:25:42.723Z,54.73
2019-01-22T04:28:42.923Z,54.57
2019-01-22T04:31:21.690Z,59.03
2019-01-22T04:34:32.536Z,62.70
2019-01-22T04:37:30.930Z,70.10
2019-01-22T04:40:34.014Z,69.90
2019-01-22T04:43:35.773Z,70.80
2019-01-22T04:46:33.536Z,79.67
2019-01-22T04:49:15.365Z,88.23
2019-01-22T04:52:12.043Z,88.23
2019-01-22T04:55:11.688Z,75.00
2019-01-22T04:57:50.662Z,95.07
2019-01-22T05:00:47.784Z,81.70
2019-01-22T05:03:38.535Z,84.07
2019-01-22T05:06:23.557Z,84.03
2019-01-22T05:09:13.195Z,87.47
2019-01-22T05:12:09.907Z,95.43
2019-01-22T05:15:09.747Z,89.33
2019-01-22T05:17:54.455Z,93.83
2019-01-22T05:20:30.500Z,93.00
2019-01-22T05:23:09.165Z,100.03
2019-01-22T05:26:00.387Z,88.90
2019-01-22T05:28:57.499Z,106.90
2019-01-22T05:31:42.376Z,85.83
2019-01-22T05:34:41.784Z,92.27
2019-01-22T05:37:26.502Z,94.40
2019-01-22T05:40:20.426Z,97.70
2019-01-22T05:43:14.193Z,90.87
2019-01-22T05:45:59.242Z,92.57
2019-01-22T05:49:10.217Z,105.77
2019-01-22T05:51:57.910Z,103.50
2019-01-22T05:54:42.612Z,110.27
2019-01-22T05:57:16.268Z,109.87
2019-01-22T06:00:04.572Z,118.17
2019-01-22T06:02:40.682Z,132.07
2019-01-22T06:05:41.982Z,131.03
2019-01-22T06:08:26.778Z,142.33
2019-01-22T06:11:29.720Z,154.13
2019-01-22T06:14:31.447Z,149.43
2019-01-22T06:17:22.255Z,137.87
2019-01-22T06:20:19.019Z,146.33
2019-01-22T06:23:11.736Z,150.60
2019-01-22T06:25:59.600Z,140.37
2019-01-22T06:28:47.178Z,162.50
2019-01-22T06:31:37.875Z,148.07
2019-01-22T06:34:33.486Z,155.67
2019-01-22T06:37:12.270Z,155.43
2019-01-22T06:39:59.720Z,158.97
2019-01-22T06:42:41.072Z,159.63
2019-01-22T06:45:51.490Z,159.70
2019-01-22T06:48:48.638Z,138.63
2019-01-22T06:51:54.810Z,164.07
2019-01-22T06:55:04.258Z,151.67
2019-01-22T06:58:11.680Z,150.03
2019-01-22T07:00:53.383Z,140.97
2019-01-22T07:03:44.406Z,147.37
2019-01-22T07:06:39.796Z,144.87
2019-01-22T07:09:38.739Z,131.20
2019-01-22T07:12:32.159Z,109.67
2019-01-22T07:15:59.584Z,89.03
2019-01-22T07:18:44.420Z,90.90
2019-01-22T07:21:39.731Z,73.47
2019-01-22T07:24:37.955Z,70.27
2019-01-22T07:27:28.906Z,67.57
2019-01-22T07:30:42.990Z,64.70
2019-01-22T07:33:44.555Z,62.43
2019-01-22T07:36:41.832Z,73.90
2019-01-22T07:39:26.499Z,62.23
2019-01-22T07:42:11.170Z,64.53
2019-01-22T07:44:58.934Z,74.27
2019-01-22T07:47:34.928Z,68.60
2019-01-22T07:50:31.748Z,61.10
2019-01-22T07:53:13.869Z,63.33
2019-01-22T07:56:12.350Z,60.50
2019-01-22T07:58:48.462Z,58.30
2019-01-22T08:01:39.432Z,62.27
2019-01-22T08:04:49.188Z,63.60
2019-01-22T08:07:49.561Z,60.87
2019-01-22T08:10:42.941Z,69.50
2019-01-22T08:13:53.535Z,70.27
2019-01-22T08:16:49.972Z,69.83
2019-01-22T08:19:46.950Z,66.97
2019-01-22T08:22:58.652Z,63.77
2019-01-22T08:25:45.874Z,67.27
2019-01-22T08:28:30.961Z,63.33
2019-01-22T08:31:18.778Z,71.00
2019-01-22T08:34:12.670Z,73.33
2019-01-22T08:37:14.274Z,66.20
2019-01-22T08:40:02.344Z,67.93
2019-01-22T08:43:13.289Z,64.30
2019-01-22T08:45:58.059Z,76.97
2019-01-22T08:48:49.409Z,82.00
2019-01-22T08:51:45.044Z,66.13
2019-01-22T08:54:46.169Z,62.87
2019-01-22T08:57:24.576Z,65.30
2019-01-22T09:00:17.047Z,69.00
2019-01-22T09:03:27.654Z,77.47
2019-01-22T09:06:24.716Z,73.43
2019-01-22T09:09:30.127Z,75.73
2019-01-22T09:12:34.670Z,69.30
2019-01-22T09:15:37.455Z,71.80
2019-01-22T09:18:25.520Z,73.20
2019-01-22T09:21:10.412Z,67.30
2019-01-22T09:23:53.361Z,77.43
2019-01-22T09:26:44.119Z,84.77
2019-01-22T09:29:28.420Z,80.00
2019-01-22T09:32:10.439Z,75.23
2019-01-22T09:35:01.625Z,74.53
2019-01-22T09:37:34.601Z,81.33
2019-01-22T09:40:09.951Z,81.27
2019-01-22T09:42:41.303Z,85.97
2019-01-22T09:45:12.900Z,82.30
2019-01-22T09:47:44.361Z,87.13
2019-01-22T09:50:15.959Z,92.57
2019-01-22T09:52:48.500Z,103.77
2019-01-22T09:55:22.451Z,97.53
2019-01-22T09:57:53.064Z,95.23
2019-01-22T10:00:24.862Z,92.67
2019-01-22T10:02:56.376Z,91.27
2019-01-22T10:05:28.827Z,90.13
2019-01-22T10:08:00.311Z,88.80
2019-01-22T10:10:31.970Z,86.43
2019-01-22T10:13:03.472Z,82.73
2019-01-22T10:15:35.085Z,80.17
2019-01-22T10:18:06.789Z,80.13
2019-01-22T10:20:38.516Z,82.43
2019-01-22T10:23:10.986Z,77.70
2019-01-22T10:25:42.462Z,73.73
2019-01-22T10:28:13.834Z,79.60
2019-01-22T10:30:45.241Z,82.27
2019-01-22T10:33:16.614Z,77.30
2019-01-22T10:35:48.134Z,73.63
2019-01-22T10:38:19.515Z,81.33
2019-01-22T10:40:51.310Z,72.47
2019-01-22T10:43:22.672Z,72.93
2019-01-22T10:45:54.089Z,70.07
2019-01-22T10:48:25.532Z,75.57
2019-01-22T10:50:56.978Z,71.67
2019-01-22T10:57:02.938Z,67.13
2019-01-22T10:59:34.389Z,74.63
2019-01-22T11:02:06.056Z,68.47
2019-01-22T11:04:43.423Z,69.27
2019-01-22T11:07:16.260Z,80.90
2019-01-22T11:09:47.931Z,72.30
2019-01-22T11:12:24.287Z,74.43
2019-01-22T11:14:55.606Z,82.80
2019-01-22T11:17:26.903Z,76.90
2019-01-22T11:19:58.326Z,79.97
2019-01-22T11:22:29.944Z,77.90
2019-01-22T11:25:07.068Z,73.33
2019-01-22T11:27:38.431Z,78.77
2019-01-22T11:30:17.432Z,76.23
2019-01-22T11:32:50.326Z,76.93
2019-01-22T11:35:24.567Z,77.57
2019-01-22T11:37:55.971Z,78.23
2019-01-22T11:40:34.178Z,74.00
2019-01-22T11:43:05.729Z,72.63
2019-01-22T11:45:37.224Z,72.13
2019-01-22T11:48:10.757Z,70.80
2019-01-22T11:50:42.138Z,72.67
2019-01-22T11:53:13.511Z,68.03
2019-01-22T11:55:50.472Z,72.77
2019-01-22T11:58:20.169Z,66.40
2019-01-22T12:00:53.123Z,65.33
2019-01-22T12:03:26.116Z,63.23
2019-01-22T12:05:57.503Z,63.83
2019-01-22T12:08:29.478Z,64.10
2019-01-22T12:11:01.199Z,67.90
2019-01-22T12:13:32.752Z,61.77
2019-01-22T12:16:04.275Z,58.87
2019-01-22T12:18:36.433Z,63.77
2019-01-22T12:21:08.086Z,59.20
2019-01-22T12:23:39.708Z,62.60
2019-01-22T12:26:13.274Z,62.23
2019-01-22T12:28:47.419Z,59.63
2019-01-22T12:31:30.097Z,59.90
2019-01-22T12:34:12.430Z,55.00
2019-01-22T12:38:46.662Z,58.00
2019-01-22T12:58:20.790Z,58.27
2019-01-22T13:00:52.724Z,58.57
2019-01-22T13:03:27.050Z,53.80
2019-01-22T13:06:04.970Z,56.63
2019-01-22T13:08:38.658Z,58.33
2019-01-22T13:11:12.409Z,57.40
2019-01-22T13:13:56.626Z,58.00
2019-01-22T13:16:31.660Z,59.17
2019-01-22T13:19:04.493Z,56.00
2019-01-22T13:21:40.359Z,60.00
2019-01-22T13:24:12.257Z,82.10
2019-01-22T13:26:49.483Z,57.87
2019-01-22T13:29:21.939Z,58.03
2019-01-22T13:31:54.452Z,57.20
2019-01-22T13:34:28.527Z,57.80
2019-01-22T13:37:00.219Z,62.07
2019-01-22T13:39:32.349Z,56.07
2019-01-22T13:42:04.205Z,57.47
2019-01-22T13:44:38.298Z,56.50
2019-01-22T13:47:29.514Z,56.87
2019-01-22T13:50:02.036Z,54.93
2019-01-22T13:52:35.256Z,56.43
2019-01-22T13:55:11.606Z,52.47
2019-01-22T13:57:47.731Z,57.30
2019-01-22T14:00:26.910Z,59.57
2019-01-22T14:03:00.794Z,54.27
2019-01-22T14:05:32.426Z,55.80
2019-01-22T14:08:05.473Z,58.70
2019-01-22T14:10:38.464Z,55.63
2019-01-22T14:13:09.874Z,58.57
2019-01-22T14:15:42.305Z,57.57
2019-01-22T14:18:15.397Z,53.73
2019-01-22T14:20:46.987Z,53.87
2019-01-22T14:23:18.454Z,54.60
2019-01-22T14:25:50.046Z,51.73
2019-01-22T14:28:21.569Z,60.33
2019-01-22T14:30:53.162Z,60.37
2019-01-22T14:33:24.849Z,56.33
2019-01-22T14:35:56.497Z,55.00
2019-01-22T14:38:29.707Z,55.93
2019-01-22T14:41:03.958Z,56.87
2019-01-22T14:43:38.730Z,56.30
2019-01-22T14:46:10.405Z,58.67
2019-01-22T14:48:43.343Z,61.07
2019-01-22T14:51:15.246Z,56.70
2019-01-22T14:53:49.949Z,58.53
2019-01-22T14:56:21.535Z,61.73
2019-01-22T14:58:54.928Z,56.07
2019-01-22T15:01:27.827Z,57.37
2019-01-22T15:03:59.636Z,57.83
2019-01-22T15:06:33.363Z,59.33
2019-01-22T15:09:06.731Z,55.93
2019-01-22T15:11:38.255Z,53.57
2019-01-22T15:14:09.684Z,54.10
2019-01-22T15:16:41.011Z,58.30
2019-01-22T15:19:12.601Z,60.03
2019-01-22T15:21:43.940Z,51.50
2019-01-22T15:24:15.338Z,49.80
2019-01-22T15:26:46.670Z,54.03
2019-01-22T15:29:17.986Z,52.37
2019-01-22T15:31:49.282Z,50.83
2019-01-22T15:34:20.666Z,51.70
2019-01-22T15:36:53.296Z,49.20
2019-01-22T15:39:24.716Z,53.47
2019-01-22T15:41:56.015Z,47.93
2019-01-22T15:44:27.652Z,50.93
2019-01-22T15:46:59.168Z,49.53
2019-01-22T15:49:30.629Z,46.47
2019-01-22T15:52:01.899Z,46.03
2019-01-22T15:54:33.449Z,47.20
2019-01-22T15:57:04.797Z,42.10
2019-01-22T15:59:36.221Z,44.93
2019-01-22T16:02:07.912Z,62.73
2019-01-22T16:04:39.529Z,44.70
2019-01-22T16:07:11.191Z,49.77
2019-01-22T16:09:42.706Z,47.40
2019-01-22T16:12:14.064Z,45.50
2019-01-22T16:14:45.579Z,45.57
2019-01-22T16:17:18.663Z,43.30
2019-01-22T16:19:50.069Z,40.67
2019-01-22T16:22:21.487Z,42.53
2019-01-22T16:24:53.313Z,38.83
2019-01-22T16:27:27.940Z,41.97
2019-01-22T16:29:59.652Z,40.97
2019-01-22T16:32:31.120Z,38.40
2019-01-22T16:35:02.920Z,36.07
2019-01-22T16:37:34.583Z,37.50
2019-01-22T16:40:13.463Z,33.83
2019-01-22T16:42:46.150Z,33.17
2019-01-22T16:45:27.750Z,36.53
2019-01-22T16:47:59.537Z,45.93
2019-01-22T16:50:33.751Z,55.53
2019-01-22T16:53:07.596Z,53.77
2019-01-22T16:55:41.197Z,58.03
2019-01-22T16:58:12.954Z,52.50
2019-01-22T17:00:44.637Z,41.23
2019-01-22T17:03:16.301Z,39.27
2019-01-22T17:05:56.287Z,43.77
2019-01-22T17:08:27.577Z,36.37
2019-01-22T17:10:58.848Z,36.03
2019-01-22T17:13:32.477Z,36.33
2019-01-22T17:20:25.963Z,36.33
2019-01-22T17:23:01.925Z,44.37
2019-01-22T17:25:31.118Z,44.77
2019-01-22T17:28:02.630Z,42.27
2019-01-22T17:30:34.125Z,37.23
2019-01-22T17:33:12.584Z,36.70
2019-01-22T17:35:43.743Z,31.30
2019-01-22T17:38:15.606Z,34.67
2019-01-22T17:40:49.884Z,33.77
2019-01-22T17:43:21.487Z,34.80
2019-01-22T17:45:53.253Z,33.73
2019-01-22T17:48:24.799Z,38.03
2019-01-22T17:50:56.321Z,41.47
2019-01-22T17:53:27.761Z,40.07
2019-01-22T17:56:01.545Z,42.23
2019-01-22T17:58:38.940Z,43.73
2019-01-22T18:01:14.761Z,41.27
2019-01-22T18:03:50.910Z,44.07
2019-01-22T18:06:22.624Z,44.67
2019-01-22T18:08:54.182Z,40.27
2019-01-22T18:11:29.894Z,42.97
2019-01-22T18:14:03.272Z,46.40
2019-01-22T18:16:35.174Z,50.17
2019-01-22T18:19:06.884Z,49.83
2019-01-22T18:21:42.393Z,45.07
2019-01-22T18:24:15.594Z,53.93
2019-01-22T18:26:47.082Z,42.57
2019-01-22T18:29:18.822Z,48.03
2019-01-22T18:31:51.977Z,41.60
2019-01-22T18:34:23.435Z,43.17
2019-01-22T18:36:54.948Z,39.90
2019-01-22T18:39:26.716Z,45.10
2019-01-22T18:41:58.213Z,47.07
2019-01-22T18:44:35.584Z,45.93
2019-01-22T18:47:14.549Z,44.53
2019-01-22T18:49:47.667Z,45.87
2019-01-22T18:52:19.446Z,45.73
2019-01-22T18:54:55.398Z,45.73
2019-01-22T18:57:27.575Z,47.37
2019-01-22T18:59:59.154Z,47.00
2019-01-22T19:02:32.296Z,44.80
2019-01-22T19:05:04.546Z,45.30
2019-01-22T19:07:36.683Z,46.37
2019-01-22T19:10:21.146Z,45.67
2019-01-22T19:12:54.145Z,45.13
2019-01-22T19:15:28.605Z,45.13
2019-01-22T19:18:04.517Z,44.80
2019-01-22T19:20:39.202Z,42.90
2019-01-22T19:23:10.916Z,41.30
2019-01-22T19:25:44.546Z,38.63
2019-01-22T19:28:17.446Z,48.57
2019-01-22T19:30:49.918Z,39.53
2019-01-22T19:33:23.148Z,45.80
2019-01-22T19:35:54.860Z,43.30
2019-01-22T19:38:26.227Z,42.20
2019-01-22T19:40:57.770Z,43.33
2019-01-22T19:43:33.586Z,46.33
2019-01-22T19:46:05.542Z,38.47
2019-01-22T19:48:38.620Z,39.40
2019-01-22T19:51:10.281Z,44.60
2019-01-22T19:53:42.014Z,48.30
2019-01-22T19:56:16.485Z,52.27
2019-01-22T19:58:47.994Z,53.67
2019-01-22T20:01:21.737Z,45.77
2019-01-22T20:03:53.320Z,50.57
2019-01-22T20:06:24.873Z,46.00
2019-01-22T20:08:56.185Z,48.50
2019-01-22T20:11:27.654Z,51.60
2019-01-22T20:13:59.027Z,49.07
2019-01-22T20:16:30.504Z,45.50
2019-01-22T20:19:02.820Z,50.37
2019-01-22T20:21:34.169Z,47.70
2019-01-22T20:24:08.126Z,54.37
2019-01-22T20:26:41.045Z,51.97
2019-01-22T20:29:12.380Z,49.77
2019-01-22T20:31:43.745Z,52.73
2019-01-22T20:34:14.992Z,49.17
2019-01-22T20:36:46.354Z,48.37
2019-01-22T20:39:30.562Z,50.63
2019-01-22T20:42:02.084Z,48.87
2019-01-22T20:44:33.393Z,52.83
2019-01-22T20:47:04.828Z,47.77
2019-01-22T20:49:36.185Z,50.67
2019-01-22T20:52:07.710Z,48.80
2019-01-22T20:54:39.092Z,44.83
2019-01-22T20:57:10.639Z,48.67
2019-01-22T20:59:41.931Z,51.13
2019-01-22T21:02:13.373Z,45.43
2019-01-22T21:04:44.988Z,46.83
2019-01-22T21:07:16.378Z,49.40
2019-01-22T21:09:49.225Z,45.33
2019-01-22T21:12:20.705Z,43.40
2019-01-22T21:14:53.174Z,50.57
2019-01-22T21:17:24.709Z,48.50
2019-01-22T21:20:01.924Z,47.13
2019-01-22T21:22:30.817Z,49.20
2019-01-22T21:25:02.056Z,44.93
2019-01-22T21:27:33.768Z,46.87
2019-01-22T21:30:09.581Z,49.03
2019-01-22T21:32:42.358Z,48.07
2019-01-22T21:35:13.747Z,48.37
2019-01-22T21:37:45.124Z,51.30
2019-01-22T21:40:17.690Z,52.50
2019-01-22T21:42:51.832Z,52.93
2019-01-22T21:45:28.922Z,54.30
2019-01-22T21:48:01.255Z,57.90
2019-01-22T21:50:32.767Z,55.27
2019-01-22T21:53:04.541Z,53.27
2019-01-22T21:55:35.889Z,51.10
2019-01-22T21:58:08.611Z,53.37
2019-01-22T22:00:40.265Z,56.93
2019-01-22T22:03:11.779Z,54.70
2019-01-22T22:05:43.088Z,52.77
2019-01-22T22:08:14.459Z,56.37
2019-01-22T22:10:45.900Z,53.70
2019-01-22T22:13:17.417Z,53.70
2019-01-22T22:15:51.517Z,52.07
2019-01-22T22:18:22.883Z,51.00
2019-01-22T22:20:54.210Z,59.17
2019-01-22T22:23:25.571Z,51.03
2019-01-22T22:25:56.852Z,52.50
2019-01-22T22:28:28.213Z,53.23
2019-01-22T22:30:59.575Z,52.93
2019-01-22T22:33:30.897Z,53.20
2019-01-22T22:36:02.160Z,53.33
2019-01-22T22:38:33.495Z,52.83
2019-01-22T22:41:05.016Z,51.50
2019-01-22T22:43:36.461Z,55.33
2019-01-22T22:46:07.972Z,58.43
2019-01-22T22:48:39.369Z,64.03
2019-01-22T22:51:10.712Z,54.73
2019-01-22T22:53:42.164Z,58.30
2019-01-22T22:56:13.512Z,58.73
2019-01-22T22:58:44.854Z,58.70
2019-01-22T23:01:24.011Z,53.57
2019-01-22T23:03:56.579Z,53.57
2019-01-22T23:06:28.043Z,57.10
2019-01-22T23:08:59.511Z,54.40
2019-01-22T23:11:30.868Z,55.43
2019-01-22T23:14:02.301Z,54.53
2019-01-22T23:16:33.768Z,55.20
2019-01-22T23:19:05.314Z,54.67
2019-01-22T23:21:37.732Z,57.47
2019-01-22T23:24:09.270Z,55.57
2019-01-22T23:26:40.689Z,57.67
2019-01-22T23:29:12.228Z,56.20
2019-01-22T23:31:43.624Z,60.63
2019-01-22T23:34:15.125Z,53.60
2019-01-22T23:36:46.548Z,63.17
2019-01-22T23:39:17.861Z,57.03
2019-01-22T23:41:49.299Z,54.80
2019-01-22T23:44:20.799Z,60.57
2019-01-22T23:46:52.259Z,55.83
2019-01-22T23:49:23.662Z,59.80
2019-01-22T23:51:55.026Z,58.10
2019-01-22T23:54:26.462Z,56.23
2019-01-22T23:56:58.374Z,58.03
2019-01-22T23:59:29.890Z,55.00
